Terminal Aerodrome Forecast
Issued by NWS

Home | Current Version | Previous Version | Text Only | Print | Product List | Glossary On
Versions: 1 2 3 4 5 6 7 8 9 10 11 12 13
000
FTUS42 KMLB 230520
TAFISM
TAF
KISM 230520Z 2306/2406 04005KT P6SM FEW070 BKN250
     FM231400 06010KT P6SM SCT040
     FM231800 07013KT P6SM SCT040 SCT060
     FM232000 06016G23KT P6SM SCT040 SCT060
     FM240000 07011KT P6SM BKN060
     FM240200 06005KT P6SM BKN060
      AMD NOT SKED TIL 231200=

USA.gov is the U.S. government's official web portal to all federal, state and local government web resources and services.